Huvudsida
METAR-TAF:

METAR-TAF

Flygplatser :

Norrköping flygplats

Norrköping, Sverige

latitud: 58-35N, longitud: 016-09E, höjd: 34 m

Aktuellt väderrapport

Denna rapport gjordes för 21 minuter sedan, klockan 00:50 UTC
Vind 4 kt från väst/sydväst
Temperatur 6°C
Fuktighet 56%
Tryck 1025 hPa
Sikt 10 km eller mer

METAR: ESSP 210050Z AUTO 25004KT 9999 NCD 06/M02 Q1025

Tid: 03:11 (01:11 UTC)

Väderprognos

Denna rapport gjordes för 7 timmar och 41 minuter sedan, klockan 17:30 UTC
Prognos gäller från 20 kl. 18 UTC till 20 kl. 20 UTC
Vind 9 kt från väst
Sikt 10 km eller mer
Inga moln under 1 500 m eller inga cumulonimbus

TAF: ESSP 201730Z 2018/2020 26009KT CAVOK

Aktuella väderrapporter och prognoser från 4000 flygplatser (METAR- och TAF-rapporter).

De tillgängliga stationerna syns som gula och röda prickar på kartan.

För musen över prickarna för att se namnen på stationerna.

Klicka sedan för att få väderrapporter och prognoser.

För att ändra kartan: Klicka på de gröna knapparna med ett svart kors på för att zooma in; den gröna knappen med ett streck på för att zooma ut; eller på de gröna pilarna för angränsande kartor.


METAR-TAF: